sensor_id;sensor_type;location;lat;lon;timestamp;temperature;humidity
4366;DHT22;2196;47.422;9.656;2023-03-19T00:02:08;9.30;99.90
4366;DHT22;2196;47.422;9.656;2023-03-19T00:04:36;9.30;99.90
4366;DHT22;2196;47.422;9.656;2023-03-19T00:07:03;9.30;99.90
4366;DHT22;2196;47.422;9.656;2023-03-19T00:09:30;9.20;99.90
4366;DHT22;2196;47.422;9.656;2023-03-19T00:11:57;9.20;99.90
4366;DHT22;2196;47.422;9.656;2023-03-19T00:14:24;9.20;99.90
4366;DHT22;2196;47.422;9.656;2023-03-19T00:16:52;9.10;99.90
4366;DHT22;2196;47.422;9.656;2023-03-19T00:19:19;9.10;99.90
4366;DHT22;2196;47.422;9.656;2023-03-19T00:21:47;9.20;99.90
4366;DHT22;2196;47.422;9.656;2023-03-19T00:24:14;9.20;99.90
4366;DHT22;2196;47.422;9.656;2023-03-19T00:26:42;9.20;99.90
4366;DHT22;2196;47.422;9.656;2023-03-19T00:29:09;9.20;99.90
4366;DHT22;2196;47.422;9.656;2023-03-19T00:31:37;9.10;99.90
4366;DHT22;2196;47.422;9.656;2023-03-19T00:34:07;9.10;99.90
4366;DHT22;2196;47.422;9.656;2023-03-19T00:36:34;9.10;99.90
4366;DHT22;2196;47.422;9.656;2023-03-19T00:39:02;9.10;99.90
4366;DHT22;2196;47.422;9.656;2023-03-19T00:41:29;9.10;99.90
4366;DHT22;2196;47.422;9.656;2023-03-19T00:43:57;9.10;99.90
4366;DHT22;2196;47.422;9.656;2023-03-19T00:46:25;9.20;99.90
4366;DHT22;2196;47.422;9.656;2023-03-19T00:48:52;9.30;99.90
4366;DHT22;2196;47.422;9.656;2023-03-19T00:51:22;9.40;99.90
4366;DHT22;2196;47.422;9.656;2023-03-19T00:53:50;9.30;99.90
4366;DHT22;2196;47.422;9.656;2023-03-19T00:56:17;9.20;99.90
4366;DHT22;2196;47.422;9.656;2023-03-19T00:58:44;9.20;99.90
4366;DHT22;2196;47.422;9.656;2023-03-19T01:01:13;9.20;99.90
4366;DHT22;2196;47.422;9.656;2023-03-19T01:03:41;9.20;99.90
4366;DHT22;2196;47.422;9.656;2023-03-19T01:06:08;9.20;99.90
4366;DHT22;2196;47.422;9.656;2023-03-19T01:08:37;9.20;99.90
4366;DHT22;2196;47.422;9.656;2023-03-19T01:11:05;9.20;99.90
4366;DHT22;2196;47.422;9.656;2023-03-19T01:13:33;9.20;99.90
4366;DHT22;2196;47.422;9.656;2023-03-19T01:16:00;9.10;99.90
4366;DHT22;2196;47.422;9.656;2023-03-19T01:18:27;9.10;99.90
4366;DHT22;2196;47.422;9.656;2023-03-19T01:20:54;9.10;99.90
4366;DHT22;2196;47.422;9.656;2023-03-19T01:23:21;9.20;99.90
4366;DHT22;2196;47.422;9.656;2023-03-19T01:25:49;9.20;99.90
4366;DHT22;2196;47.422;9.656;2023-03-19T01:28:17;9.20;99.90
4366;DHT22;2196;47.422;9.656;2023-03-19T01:30:44;9.20;99.90
4366;DHT22;2196;47.422;9.656;2023-03-19T01:33:11;9.10;99.90
4366;DHT22;2196;47.422;9.656;2023-03-19T01:35:38;9.10;99.90
4366;DHT22;2196;47.422;9.656;2023-03-19T01:38:05;9.00;99.90
4366;DHT22;2196;47.422;9.656;2023-03-19T01:40:32;9.00;99.90
4366;DHT22;2196;47.422;9.656;2023-03-19T01:43:14;8.90;99.90
4366;DHT22;2196;47.422;9.656;2023-03-19T01:45:43;8.90;99.90
4366;DHT22;2196;47.422;9.656;2023-03-19T01:48:26;8.80;99.90
4366;DHT22;2196;47.422;9.656;2023-03-19T01:50:54;8.80;99.90
4366;DHT22;2196;47.422;9.656;2023-03-19T01:53:24;8.80;99.90
4366;DHT22;2196;47.422;9.656;2023-03-19T01:55:54;8.80;99.90
4366;DHT22;2196;47.422;9.656;2023-03-19T01:58:24;8.70;99.90
4366;DHT22;2196;47.422;9.656;2023-03-19T02:00:51;8.70;99.90
4366;DHT22;2196;47.422;9.656;2023-03-19T02:03:18;8.70;99.90
4366;DHT22;2196;47.422;9.656;2023-03-19T02:05:48;8.70;99.90
4366;DHT22;2196;47.422;9.656;2023-03-19T02:08:18;8.70;99.90
4366;DHT22;2196;47.422;9.656;2023-03-19T02:10:48;8.70;99.90
4366;DHT22;2196;47.422;9.656;2023-03-19T02:13:16;8.90;99.90
4366;DHT22;2196;47.422;9.656;2023-03-19T02:15:45;8.90;99.90
4366;DHT22;2196;47.422;9.656;2023-03-19T02:18:12;8.90;99.90
4366;DHT22;2196;47.422;9.656;2023-03-19T02:20:44;8.90;99.90
4366;DHT22;2196;47.422;9.656;2023-03-19T02:23:24;8.80;99.90
4366;DHT22;2196;47.422;9.656;2023-03-19T02:26:06;8.80;99.90
4366;DHT22;2196;47.422;9.656;2023-03-19T02:28:35;8.70;99.90
4366;DHT22;2196;47.422;9.656;2023-03-19T02:31:04;8.70;99.90
4366;DHT22;2196;47.422;9.656;2023-03-19T02:33:31;8.70;99.90
4366;DHT22;2196;47.422;9.656;2023-03-19T02:35:59;8.70;99.90
4366;DHT22;2196;47.422;9.656;2023-03-19T02:38:30;8.70;99.90
4366;DHT22;2196;47.422;9.656;2023-03-19T02:41:00;8.80;99.90
4366;DHT22;2196;47.422;9.656;2023-03-19T02:43:31;8.80;99.90
4366;DHT22;2196;47.422;9.656;2023-03-19T02:45:58;8.80;99.90
4366;DHT22;2196;47.422;9.656;2023-03-19T02:48:26;8.70;99.90
4366;DHT22;2196;47.422;9.656;2023-03-19T02:50:53;8.80;99.90
4366;DHT22;2196;47.422;9.656;2023-03-19T02:53:20;8.80;99.90
4366;DHT22;2196;47.422;9.656;2023-03-19T02:55:47;8.80;99.90
4366;DHT22;2196;47.422;9.656;2023-03-19T02:58:14;8.80;99.90
4366;DHT22;2196;47.422;9.656;2023-03-19T03:00:43;8.80;99.90
4366;DHT22;2196;47.422;9.656;2023-03-19T03:03:10;8.80;99.90
4366;DHT22;2196;47.422;9.656;2023-03-19T03:05:37;8.80;99.90
4366;DHT22;2196;47.422;9.656;2023-03-19T03:08:05;8.80;99.90
4366;DHT22;2196;47.422;9.656;2023-03-19T03:10:32;8.90;99.90
4366;DHT22;2196;47.422;9.656;2023-03-19T03:12:59;9.00;99.90
4366;DHT22;2196;47.422;9.656;2023-03-19T03:15:26;9.00;99.90
4366;DHT22;2196;47.422;9.656;2023-03-19T03:17:59;9.10;99.90
4366;DHT22;2196;47.422;9.656;2023-03-19T03:20:26;9.00;99.90
4366;DHT22;2196;47.422;9.656;2023-03-19T03:22:53;9.00;99.90
4366;DHT22;2196;47.422;9.656;2023-03-19T03:25:20;9.00;99.90
4366;DHT22;2196;47.422;9.656;2023-03-19T03:27:48;9.00;99.90
4366;DHT22;2196;47.422;9.656;2023-03-19T03:30:15;8.90;99.90
4366;DHT22;2196;47.422;9.656;2023-03-19T03:32:43;8.90;99.90
4366;DHT22;2196;47.422;9.656;2023-03-19T03:35:11;8.90;99.90
4366;DHT22;2196;47.422;9.656;2023-03-19T03:37:42;8.90;99.90
4366;DHT22;2196;47.422;9.656;2023-03-19T03:40:10;9.00;99.90
4366;DHT22;2196;47.422;9.656;2023-03-19T03:42:38;9.10;99.90
4366;DHT22;2196;47.422;9.656;2023-03-19T03:45:07;9.10;99.90
4366;DHT22;2196;47.422;9.656;2023-03-19T03:47:35;9.00;99.90
4366;DHT22;2196;47.422;9.656;2023-03-19T03:50:02;8.90;99.90
4366;DHT22;2196;47.422;9.656;2023-03-19T03:52:31;8.90;99.90
4366;DHT22;2196;47.422;9.656;2023-03-19T03:54:59;8.80;99.90
4366;DHT22;2196;47.422;9.656;2023-03-19T03:57:26;8.80;99.90
4366;DHT22;2196;47.422;9.656;2023-03-19T03:59:53;8.80;99.90
4366;DHT22;2196;47.422;9.656;2023-03-19T04:02:20;8.80;99.90
4366;DHT22;2196;47.422;9.656;2023-03-19T04:04:47;8.80;99.90
4366;DHT22;2196;47.422;9.656;2023-03-19T04:07:14;8.80;99.90
4366;DHT22;2196;47.422;9.656;2023-03-19T04:09:43;8.80;99.90
4366;DHT22;2196;47.422;9.656;2023-03-19T04:12:11;8.80;99.90
4366;DHT22;2196;47.422;9.656;2023-03-19T04:14:38;8.80;99.90
4366;DHT22;2196;47.422;9.656;2023-03-19T04:17:05;8.80;99.90
4366;DHT22;2196;47.422;9.656;2023-03-19T04:19:32;8.70;99.90
4366;DHT22;2196;47.422;9.656;2023-03-19T04:21:59;8.80;99.90
4366;DHT22;2196;47.422;9.656;2023-03-19T04:24:28;8.80;99.90
4366;DHT22;2196;47.422;9.656;2023-03-19T04:26:57;8.80;99.90
4366;DHT22;2196;47.422;9.656;2023-03-19T04:29:24;8.90;99.90
4366;DHT22;2196;47.422;9.656;2023-03-19T04:31:52;8.90;99.90
4366;DHT22;2196;47.422;9.656;2023-03-19T04:34:19;8.90;99.90
4366;DHT22;2196;47.422;9.656;2023-03-19T04:36:46;8.90;99.90
4366;DHT22;2196;47.422;9.656;2023-03-19T04:39:13;8.90;99.90
4366;DHT22;2196;47.422;9.656;2023-03-19T04:41:40;8.90;99.90
4366;DHT22;2196;47.422;9.656;2023-03-19T04:44:09;8.90;99.90
4366;DHT22;2196;47.422;9.656;2023-03-19T04:46:36;8.90;99.90
4366;DHT22;2196;47.422;9.656;2023-03-19T04:49:03;8.90;99.90
4366;DHT22;2196;47.422;9.656;2023-03-19T04:51:30;8.90;99.90
4366;DHT22;2196;47.422;9.656;2023-03-19T04:53:57;8.90;99.90
4366;DHT22;2196;47.422;9.656;2023-03-19T04:56:24;8.90;99.90
4366;DHT22;2196;47.422;9.656;2023-03-19T04:58:52;8.90;99.90
4366;DHT22;2196;47.422;9.656;2023-03-19T05:01:20;8.90;99.90
4366;DHT22;2196;47.422;9.656;2023-03-19T05:03:47;8.90;99.90
4366;DHT22;2196;47.422;9.656;2023-03-19T05:06:14;9.00;99.90
4366;DHT22;2196;47.422;9.656;2023-03-19T05:08:44;9.00;99.90
4366;DHT22;2196;47.422;9.656;2023-03-19T05:11:11;8.90;99.90
4366;DHT22;2196;47.422;9.656;2023-03-19T05:13:38;8.90;99.90
4366;DHT22;2196;47.422;9.656;2023-03-19T05:16:06;8.90;99.90
4366;DHT22;2196;47.422;9.656;2023-03-19T05:18:35;8.90;99.90
4366;DHT22;2196;47.422;9.656;2023-03-19T05:21:02;8.90;99.90
4366;DHT22;2196;47.422;9.656;2023-03-19T05:23:30;9.00;99.90
4366;DHT22;2196;47.422;9.656;2023-03-19T05:25:58;9.00;99.90
4366;DHT22;2196;47.422;9.656;2023-03-19T05:28:25;9.00;99.90
4366;DHT22;2196;47.422;9.656;2023-03-19T05:30:53;9.00;99.90
4366;DHT22;2196;47.422;9.656;2023-03-19T05:33:20;9.00;99.90
4366;DHT22;2196;47.422;9.656;2023-03-19T05:35:48;9.00;99.90
4366;DHT22;2196;47.422;9.656;2023-03-19T05:38:16;9.00;99.90
4366;DHT22;2196;47.422;9.656;2023-03-19T05:40:43;8.90;99.90
4366;DHT22;2196;47.422;9.656;2023-03-19T05:43:10;9.10;99.90
4366;DHT22;2196;47.422;9.656;2023-03-19T05:45:37;9.00;99.90
4366;DHT22;2196;47.422;9.656;2023-03-19T05:48:05;9.00;99.90
4366;DHT22;2196;47.422;9.656;2023-03-19T05:50:32;9.00;99.90
4366;DHT22;2196;47.422;9.656;2023-03-19T05:53:01;9.00;99.90
4366;DHT22;2196;47.422;9.656;2023-03-19T05:55:28;9.00;99.90
4366;DHT22;2196;47.422;9.656;2023-03-19T05:57:57;8.90;99.90
4366;DHT22;2196;47.422;9.656;2023-03-19T06:00:25;8.90;99.90
4366;DHT22;2196;47.422;9.656;2023-03-19T06:02:57;9.10;99.90
4366;DHT22;2196;47.422;9.656;2023-03-19T06:05:27;9.10;99.90
4366;DHT22;2196;47.422;9.656;2023-03-19T06:07:57;9.10;99.90
4366;DHT22;2196;47.422;9.656;2023-03-19T06:10:25;9.20;99.90
4366;DHT22;2196;47.422;9.656;2023-03-19T06:12:52;9.40;99.90
4366;DHT22;2196;47.422;9.656;2023-03-19T06:15:23;9.40;99.90
4366;DHT22;2196;47.422;9.656;2023-03-19T06:17:54;9.40;99.90
4366;DHT22;2196;47.422;9.656;2023-03-19T06:20:22;9.40;99.90
4366;DHT22;2196;47.422;9.656;2023-03-19T06:22:49;9.50;99.90
4366;DHT22;2196;47.422;9.656;2023-03-19T06:25:16;9.50;99.90
4366;DHT22;2196;47.422;9.656;2023-03-19T06:27:45;9.40;99.90
4366;DHT22;2196;47.422;9.656;2023-03-19T06:30:12;9.40;99.90
4366;DHT22;2196;47.422;9.656;2023-03-19T06:32:40;9.40;99.90
4366;DHT22;2196;47.422;9.656;2023-03-19T06:35:08;9.40;99.90
4366;DHT22;2196;47.422;9.656;2023-03-19T06:37:35;9.40;99.90
4366;DHT22;2196;47.422;9.656;2023-03-19T06:40:03;9.40;99.90
4366;DHT22;2196;47.422;9.656;2023-03-19T06:42:30;9.40;99.90
4366;DHT22;2196;47.422;9.656;2023-03-19T06:44:59;9.40;99.90
4366;DHT22;2196;47.422;9.656;2023-03-19T06:47:26;9.50;99.90
4366;DHT22;2196;47.422;9.656;2023-03-19T06:49:53;9.60;99.90
4366;DHT22;2196;47.422;9.656;2023-03-19T06:52:21;9.70;99.90
4366;DHT22;2196;47.422;9.656;2023-03-19T06:54:48;9.70;99.90
4366;DHT22;2196;47.422;9.656;2023-03-19T06:57:15;9.70;99.90
4366;DHT22;2196;47.422;9.656;2023-03-19T06:59:42;9.80;99.90
4366;DHT22;2196;47.422;9.656;2023-03-19T07:02:11;9.90;99.90
4366;DHT22;2196;47.422;9.656;2023-03-19T07:04:38;10.10;99.90
4366;DHT22;2196;47.422;9.656;2023-03-19T07:07:06;10.20;99.90
4366;DHT22;2196;47.422;9.656;2023-03-19T07:09:33;10.40;99.90
4366;DHT22;2196;47.422;9.656;2023-03-19T07:12:00;10.60;99.90
4366;DHT22;2196;47.422;9.656;2023-03-19T07:14:27;10.80;99.90
4366;DHT22;2196;47.422;9.656;2023-03-19T07:16:54;11.00;99.90
4366;DHT22;2196;47.422;9.656;2023-03-19T07:19:22;11.10;99.90
4366;DHT22;2196;47.422;9.656;2023-03-19T07:21:50;11.30;99.90
4366;DHT22;2196;47.422;9.656;2023-03-19T07:24:17;11.50;99.90
4366;DHT22;2196;47.422;9.656;2023-03-19T07:26:44;11.70;99.90
4366;DHT22;2196;47.422;9.656;2023-03-19T07:29:12;11.70;99.90
4366;DHT22;2196;47.422;9.656;2023-03-19T07:31:40;11.80;99.90
4366;DHT22;2196;47.422;9.656;2023-03-19T07:34:07;12.00;99.90
4366;DHT22;2196;47.422;9.656;2023-03-19T07:36:35;12.20;99.90
4366;DHT22;2196;47.422;9.656;2023-03-19T07:39:02;12.50;99.90
4366;DHT22;2196;47.422;9.656;2023-03-19T07:41:29;12.70;99.90
4366;DHT22;2196;47.422;9.656;2023-03-19T07:43:56;12.90;99.90
4366;DHT22;2196;47.422;9.656;2023-03-19T07:46:23;13.10;99.90
4366;DHT22;2196;47.422;9.656;2023-03-19T07:48:51;13.20;99.90
4366;DHT22;2196;47.422;9.656;2023-03-19T07:51:18;13.60;99.90
4366;DHT22;2196;47.422;9.656;2023-03-19T07:53:46;14.10;99.90
4366;DHT22;2196;47.422;9.656;2023-03-19T07:56:13;14.30;99.90
4366;DHT22;2196;47.422;9.656;2023-03-19T07:58:40;14.50;99.90
4366;DHT22;2196;47.422;9.656;2023-03-19T08:01:10;14.70;99.90
4366;DHT22;2196;47.422;9.656;2023-03-19T08:03:37;14.80;99.90
4366;DHT22;2196;47.422;9.656;2023-03-19T08:06:05;14.90;99.90
4366;DHT22;2196;47.422;9.656;2023-03-19T08:08:32;15.00;99.90
4366;DHT22;2196;47.422;9.656;2023-03-19T08:11:01;15.10;99.90
4366;DHT22;2196;47.422;9.656;2023-03-19T08:13:28;15.30;99.90
4366;DHT22;2196;47.422;9.656;2023-03-19T08:15:56;15.30;99.90
4366;DHT22;2196;47.422;9.656;2023-03-19T08:18:23;15.40;99.90
4366;DHT22;2196;47.422;9.656;2023-03-19T08:20:50;15.50;99.90
4366;DHT22;2196;47.422;9.656;2023-03-19T08:23:17;15.70;99.90
4366;DHT22;2196;47.422;9.656;2023-03-19T08:25:44;15.70;99.90
4366;DHT22;2196;47.422;9.656;2023-03-19T08:28:13;15.40;99.90
4366;DHT22;2196;47.422;9.656;2023-03-19T08:30:40;15.50;99.90
4366;DHT22;2196;47.422;9.656;2023-03-19T08:33:07;15.50;99.90
4366;DHT22;2196;47.422;9.656;2023-03-19T08:35:34;15.50;99.90
4366;DHT22;2196;47.422;9.656;2023-03-19T08:38:02;16.10;99.90
4366;DHT22;2196;47.422;9.656;2023-03-19T08:40:31;16.70;99.90
4366;DHT22;2196;47.422;9.656;2023-03-19T08:43:01;17.10;99.90
4366;DHT22;2196;47.422;9.656;2023-03-19T08:45:32;18.10;99.90
4366;DHT22;2196;47.422;9.656;2023-03-19T08:48:03;18.50;99.90
4366;DHT22;2196;47.422;9.656;2023-03-19T08:50:32;19.20;99.90
4366;DHT22;2196;47.422;9.656;2023-03-19T08:53:02;20.10;99.90
4366;DHT22;2196;47.422;9.656;2023-03-19T08:55:30;20.40;99.90
4366;DHT22;2196;47.422;9.656;2023-03-19T08:58:02;20.80;99.90
4366;DHT22;2196;47.422;9.656;2023-03-19T09:00:32;21.20;99.90
4366;DHT22;2196;47.422;9.656;2023-03-19T09:03:02;22.00;99.90
4366;DHT22;2196;47.422;9.656;2023-03-19T09:05:32;22.60;98.50
4366;DHT22;2196;47.422;9.656;2023-03-19T09:08:04;22.80;97.50
4366;DHT22;2196;47.422;9.656;2023-03-19T09:10:32;23.30;95.70
4366;DHT22;2196;47.422;9.656;2023-03-19T09:13:00;23.80;95.40
4366;DHT22;2196;47.422;9.656;2023-03-19T09:15:34;23.30;93.90
4366;DHT22;2196;47.422;9.656;2023-03-19T09:18:08;21.40;95.50
4366;DHT22;2196;47.422;9.656;2023-03-19T09:20:36;20.80;97.50
4366;DHT22;2196;47.422;9.656;2023-03-19T09:23:04;19.80;97.10
4366;DHT22;2196;47.422;9.656;2023-03-19T09:25:32;19.90;97.30
4366;DHT22;2196;47.422;9.656;2023-03-19T09:28:01;20.50;94.80
4366;DHT22;2196;47.422;9.656;2023-03-19T09:30:34;21.30;95.60
4366;DHT22;2196;47.422;9.656;2023-03-19T09:33:03;22.30;93.90
4366;DHT22;2196;47.422;9.656;2023-03-19T09:35:32;22.70;92.30
4366;DHT22;2196;47.422;9.656;2023-03-19T09:38:02;22.60;91.50
4366;DHT22;2196;47.422;9.656;2023-03-19T09:40:35;22.70;91.70
4366;DHT22;2196;47.422;9.656;2023-03-19T09:43:15;23.30;90.80
4366;DHT22;2196;47.422;9.656;2023-03-19T09:45:51;23.70;90.30
4366;DHT22;2196;47.422;9.656;2023-03-19T09:48:32;23.70;88.00
4366;DHT22;2196;47.422;9.656;2023-03-19T09:51:07;23.50;86.40
4366;DHT22;2196;47.422;9.656;2023-03-19T09:53:44;23.10;86.10
4366;DHT22;2196;47.422;9.656;2023-03-19T09:56:15;23.00;86.50
4366;DHT22;2196;47.422;9.656;2023-03-19T09:58:44;22.50;88.30
4366;DHT22;2196;47.422;9.656;2023-03-19T10:01:24;22.20;86.80
4366;DHT22;2196;47.422;9.656;2023-03-19T10:04:07;22.20;87.70
4366;DHT22;2196;47.422;9.656;2023-03-19T10:06:39;21.80;87.50
4366;DHT22;2196;47.422;9.656;2023-03-19T10:09:28;21.60;88.00
4366;DHT22;2196;47.422;9.656;2023-03-19T10:12:05;21.00;88.70
4366;DHT22;2196;47.422;9.656;2023-03-19T10:14:57;21.30;89.00
4366;DHT22;2196;47.422;9.656;2023-03-19T10:17:31;21.00;89.00
4366;DHT22;2196;47.422;9.656;2023-03-19T10:20:02;21.00;91.00
4366;DHT22;2196;47.422;9.656;2023-03-19T10:22:35;21.30;90.70
4366;DHT22;2196;47.422;9.656;2023-03-19T10:25:07;21.40;90.40
4366;DHT22;2196;47.422;9.656;2023-03-19T10:27:36;20.70;88.40
4366;DHT22;2196;47.422;9.656;2023-03-19T10:30:12;20.90;88.40
4366;DHT22;2196;47.422;9.656;2023-03-19T10:32:43;20.30;89.10
4366;DHT22;2196;47.422;9.656;2023-03-19T10:35:18;20.00;91.60
4366;DHT22;2196;47.422;9.656;2023-03-19T10:37:46;19.30;90.70
4366;DHT22;2196;47.422;9.656;2023-03-19T10:40:20;18.80;91.00
4366;DHT22;2196;47.422;9.656;2023-03-19T10:43:03;18.80;91.40
4366;DHT22;2196;47.422;9.656;2023-03-19T10:45:34;18.80;91.40
4366;DHT22;2196;47.422;9.656;2023-03-19T10:48:04;18.90;91.90
4366;DHT22;2196;47.422;9.656;2023-03-19T10:50:34;19.00;95.10
4366;DHT22;2196;47.422;9.656;2023-03-19T10:53:06;19.30;93.20
4366;DHT22;2196;47.422;9.656;2023-03-19T10:55:33;19.40;92.20
4366;DHT22;2196;47.422;9.656;2023-03-19T10:58:03;19.20;92.00
4366;DHT22;2196;47.422;9.656;2023-03-19T11:00:32;19.10;92.50
4366;DHT22;2196;47.422;9.656;2023-03-19T11:03:01;19.20;91.80
4366;DHT22;2196;47.422;9.656;2023-03-19T11:05:31;18.90;92.10
4366;DHT22;2196;47.422;9.656;2023-03-19T11:08:00;18.80;91.80
4366;DHT22;2196;47.422;9.656;2023-03-19T11:10:29;18.60;92.20
4366;DHT22;2196;47.422;9.656;2023-03-19T11:13:03;18.60;92.40
4366;DHT22;2196;47.422;9.656;2023-03-19T11:15:34;18.50;92.10
4366;DHT22;2196;47.422;9.656;2023-03-19T11:18:14;18.40;92.10
4366;DHT22;2196;47.422;9.656;2023-03-19T11:20:42;18.50;92.50
4366;DHT22;2196;47.422;9.656;2023-03-19T11:23:15;18.50;92.00
4366;DHT22;2196;47.422;9.656;2023-03-19T11:25:48;18.50;91.50
4366;DHT22;2196;47.422;9.656;2023-03-19T11:28:17;18.60;91.30
4366;DHT22;2196;47.422;9.656;2023-03-19T11:30:52;18.60;91.60
4366;DHT22;2196;47.422;9.656;2023-03-19T11:33:38;18.50;92.30
4366;DHT22;2196;47.422;9.656;2023-03-19T11:36:11;18.40;92.50
4366;DHT22;2196;47.422;9.656;2023-03-19T11:38:48;18.30;93.30
4366;DHT22;2196;47.422;9.656;2023-03-19T11:41:23;17.90;94.20
4366;DHT22;2196;47.422;9.656;2023-03-19T11:43:58;17.80;94.00
4366;DHT22;2196;47.422;9.656;2023-03-19T11:46:40;17.70;92.70
4366;DHT22;2196;47.422;9.656;2023-03-19T11:49:33;17.80;92.70
4366;DHT22;2196;47.422;9.656;2023-03-19T11:52:14;17.70;92.30
4366;DHT22;2196;47.422;9.656;2023-03-19T11:54:53;18.00;92.50
4366;DHT22;2196;47.422;9.656;2023-03-19T11:57:29;17.90;92.70
4366;DHT22;2196;47.422;9.656;2023-03-19T12:00:15;18.00;92.40
4366;DHT22;2196;47.422;9.656;2023-03-19T12:03:26;18.20;91.80
4366;DHT22;2196;47.422;9.656;2023-03-19T12:06:07;18.20;94.50
4366;DHT22;2196;47.422;9.656;2023-03-19T12:08:43;18.10;93.40
4366;DHT22;2196;47.422;9.656;2023-03-19T12:11:17;18.20;93.50
4366;DHT22;2196;47.422;9.656;2023-03-19T12:13:58;18.10;92.30
4366;DHT22;2196;47.422;9.656;2023-03-19T12:16:35;18.10;92.10
4366;DHT22;2196;47.422;9.656;2023-03-19T12:19:27;18.10;91.40
4366;DHT22;2196;47.422;9.656;2023-03-19T12:22:08;18.00;91.00
4366;DHT22;2196;47.422;9.656;2023-03-19T12:24:46;17.90;91.00
4366;DHT22;2196;47.422;9.656;2023-03-19T12:27:24;17.90;91.20
4366;DHT22;2196;47.422;9.656;2023-03-19T12:29:59;17.80;91.40
4366;DHT22;2196;47.422;9.656;2023-03-19T12:32:38;17.70;92.60
4366;DHT22;2196;47.422;9.656;2023-03-19T12:35:13;17.50;91.30
4366;DHT22;2196;47.422;9.656;2023-03-19T12:37:45;17.50;92.60
4366;DHT22;2196;47.422;9.656;2023-03-19T12:40:23;17.70;93.00
4366;DHT22;2196;47.422;9.656;2023-03-19T12:42:59;17.80;94.70
4366;DHT22;2196;47.422;9.656;2023-03-19T12:45:32;17.40;95.50
4366;DHT22;2196;47.422;9.656;2023-03-19T12:48:05;17.40;95.70
4366;DHT22;2196;47.422;9.656;2023-03-19T12:50:36;17.30;95.80
4366;DHT22;2196;47.422;9.656;2023-03-19T12:53:10;17.40;95.80
4366;DHT22;2196;47.422;9.656;2023-03-19T12:55:43;17.40;95.70
4366;DHT22;2196;47.422;9.656;2023-03-19T12:58:16;17.10;95.60
4366;DHT22;2196;47.422;9.656;2023-03-19T13:00:51;16.60;95.60
4366;DHT22;2196;47.422;9.656;2023-03-19T13:03:24;16.40;96.60
4366;DHT22;2196;47.422;9.656;2023-03-19T13:05:58;16.30;96.70
4366;DHT22;2196;47.422;9.656;2023-03-19T13:08:30;16.10;97.50
4366;DHT22;2196;47.422;9.656;2023-03-19T13:11:02;16.20;97.30
4366;DHT22;2196;47.422;9.656;2023-03-19T13:13:38;16.50;97.30
4366;DHT22;2196;47.422;9.656;2023-03-19T13:16:11;16.50;98.10
4366;DHT22;2196;47.422;9.656;2023-03-19T13:18:46;16.40;97.60
4366;DHT22;2196;47.422;9.656;2023-03-19T13:21:21;16.40;97.30
4366;DHT22;2196;47.422;9.656;2023-03-19T13:24:01;16.30;97.10
4366;DHT22;2196;47.422;9.656;2023-03-19T13:26:30;16.20;97.00
4366;DHT22;2196;47.422;9.656;2023-03-19T13:29:01;16.20;96.90
4366;DHT22;2196;47.422;9.656;2023-03-19T13:31:33;16.30;97.60
4366;DHT22;2196;47.422;9.656;2023-03-19T13:34:02;16.20;97.30
4366;DHT22;2196;47.422;9.656;2023-03-19T13:36:33;15.80;96.50
4366;DHT22;2196;47.422;9.656;2023-03-19T13:39:03;15.90;98.40
4366;DHT22;2196;47.422;9.656;2023-03-19T13:41:57;15.80;97.60
4366;DHT22;2196;47.422;9.656;2023-03-19T13:44:41;15.80;98.60
4366;DHT22;2196;47.422;9.656;2023-03-19T13:47:36;15.80;98.50
4366;DHT22;2196;47.422;9.656;2023-03-19T13:50:23;15.80;99.00
4366;DHT22;2196;47.422;9.656;2023-03-19T13:53:17;15.70;98.50
4366;DHT22;2196;47.422;9.656;2023-03-19T13:55:51;15.70;99.40
4366;DHT22;2196;47.422;9.656;2023-03-19T13:58:22;15.80;99.90
4366;DHT22;2196;47.422;9.656;2023-03-19T14:01:10;15.70;98.60
4366;DHT22;2196;47.422;9.656;2023-03-19T14:03:40;15.70;99.00
4366;DHT22;2196;47.422;9.656;2023-03-19T14:06:32;15.70;99.00
4366;DHT22;2196;47.422;9.656;2023-03-19T14:09:00;15.60;98.60
4366;DHT22;2196;47.422;9.656;2023-03-19T14:11:31;15.50;98.10
4366;DHT22;2196;47.422;9.656;2023-03-19T14:14:04;15.30;97.70
4366;DHT22;2196;47.422;9.656;2023-03-19T14:16:34;15.40;98.60
4366;DHT22;2196;47.422;9.656;2023-03-19T14:19:10;15.50;99.50
4366;DHT22;2196;47.422;9.656;2023-03-19T14:21:41;15.50;98.60
4366;DHT22;2196;47.422;9.656;2023-03-19T14:24:28;15.30;98.90
4366;DHT22;2196;47.422;9.656;2023-03-19T14:27:03;15.30;99.10
4366;DHT22;2196;47.422;9.656;2023-03-19T14:29:41;15.40;99.90
4366;DHT22;2196;47.422;9.656;2023-03-19T14:32:14;15.30;99.80
4366;DHT22;2196;47.422;9.656;2023-03-19T14:34:43;15.40;99.90
4366;DHT22;2196;47.422;9.656;2023-03-19T14:37:18;15.30;99.90
4366;DHT22;2196;47.422;9.656;2023-03-19T14:39:53;15.30;99.90
4366;DHT22;2196;47.422;9.656;2023-03-19T14:42:26;15.30;99.90
4366;DHT22;2196;47.422;9.656;2023-03-19T14:48:12;15.30;99.90
4366;DHT22;2196;47.422;9.656;2023-03-19T14:53:39;15.10;99.90
4366;DHT22;2196;47.422;9.656;2023-03-19T14:56:13;15.00;99.90
4366;DHT22;2196;47.422;9.656;2023-03-19T14:58:49;14.90;99.90
4366;DHT22;2196;47.422;9.656;2023-03-19T15:01:17;14.90;99.90
4366;DHT22;2196;47.422;9.656;2023-03-19T15:03:44;14.80;99.90
4366;DHT22;2196;47.422;9.656;2023-03-19T15:06:13;14.80;99.90
4366;DHT22;2196;47.422;9.656;2023-03-19T15:08:41;14.40;99.90
4366;DHT22;2196;47.422;9.656;2023-03-19T15:11:22;14.00;99.90
4366;DHT22;2196;47.422;9.656;2023-03-19T15:14:09;13.90;99.90
4366;DHT22;2196;47.422;9.656;2023-03-19T15:16:44;13.70;99.90
4366;DHT22;2196;47.422;9.656;2023-03-19T15:19:13;13.50;99.90
4366;DHT22;2196;47.422;9.656;2023-03-19T15:21:42;13.40;99.90
4366;DHT22;2196;47.422;9.656;2023-03-19T15:24:13;13.30;99.90
4366;DHT22;2196;47.422;9.656;2023-03-19T15:26:42;13.10;99.90
4366;DHT22;2196;47.422;9.656;2023-03-19T15:29:10;13.00;99.90
4366;DHT22;2196;47.422;9.656;2023-03-19T15:31:43;13.10;99.90
4366;DHT22;2196;47.422;9.656;2023-03-19T15:34:18;12.90;99.90
4366;DHT22;2196;47.422;9.656;2023-03-19T15:36:45;12.70;99.90
4366;DHT22;2196;47.422;9.656;2023-03-19T15:39:15;12.50;99.90
4366;DHT22;2196;47.422;9.656;2023-03-19T15:41:45;12.30;99.90
4366;DHT22;2196;47.422;9.656;2023-03-19T15:44:17;12.20;99.90
4366;DHT22;2196;47.422;9.656;2023-03-19T15:46:46;12.10;99.90
4366;DHT22;2196;47.422;9.656;2023-03-19T15:49:15;12.00;99.90
4366;DHT22;2196;47.422;9.656;2023-03-19T15:51:45;12.00;99.90
4366;DHT22;2196;47.422;9.656;2023-03-19T15:54:16;11.90;99.90
4366;DHT22;2196;47.422;9.656;2023-03-19T15:56:43;11.90;99.90
4366;DHT22;2196;47.422;9.656;2023-03-19T15:59:11;11.80;99.90
4366;DHT22;2196;47.422;9.656;2023-03-19T16:01:41;11.80;99.90
4366;DHT22;2196;47.422;9.656;2023-03-19T16:04:15;12.00;99.90
4366;DHT22;2196;47.422;9.656;2023-03-19T16:06:46;12.00;99.90
4366;DHT22;2196;47.422;9.656;2023-03-19T16:09:22;11.90;99.90
4366;DHT22;2196;47.422;9.656;2023-03-19T16:11:51;11.80;99.90
4366;DHT22;2196;47.422;9.656;2023-03-19T16:14:23;11.70;99.90
4366;DHT22;2196;47.422;9.656;2023-03-19T16:16:58;11.80;99.90
4366;DHT22;2196;47.422;9.656;2023-03-19T16:19:29;11.90;99.90
4366;DHT22;2196;47.422;9.656;2023-03-19T16:21:57;11.90;99.90
4366;DHT22;2196;47.422;9.656;2023-03-19T16:24:27;11.80;99.90
4366;DHT22;2196;47.422;9.656;2023-03-19T16:26:56;11.70;99.90
4366;DHT22;2196;47.422;9.656;2023-03-19T16:29:24;11.60;99.90
4366;DHT22;2196;47.422;9.656;2023-03-19T16:32:00;11.60;99.90
4366;DHT22;2196;47.422;9.656;2023-03-19T16:34:38;11.50;99.90
4366;DHT22;2196;47.422;9.656;2023-03-19T16:37:33;11.60;99.90
4366;DHT22;2196;47.422;9.656;2023-03-19T16:40:01;11.60;99.90